sensor_id;sensor_type;location;lat;lon;timestamp;pressure;altitude;pressure_sealevel;temperature;humidity
67517;BME280;54359;59.124;37.910;2023-02-16T00:00:48;101046.69;;;-5.21;76.77
67517;BME280;54359;59.124;37.910;2023-02-16T00:03:21;101057.09;;;-5.16;76.63
67517;BME280;54359;59.124;37.910;2023-02-16T00:05:48;101049.44;;;-5.18;77.26
67517;BME280;54359;59.124;37.910;2023-02-16T00:08:14;101057.09;;;-5.16;76.91
67517;BME280;54359;59.124;37.910;2023-02-16T00:10:40;101066.38;;;-5.15;76.33
67517;BME280;54359;59.124;37.910;2023-02-16T00:13:26;101044.16;;;-5.21;76.81
67517;BME280;54359;59.124;37.910;2023-02-16T00:18:40;101044.28;;;-5.19;77.17
67517;BME280;54359;59.124;37.910;2023-02-16T00:21:06;101043.09;;;-5.14;76.34
67517;BME280;54359;59.124;37.910;2023-02-16T00:23:31;101048.38;;;-5.11;76.56
67517;BME280;54359;59.124;37.910;2023-02-16T00:25:57;101045.84;;;-5.11;77.15
67517;BME280;54359;59.124;37.910;2023-02-16T00:28:23;101021.00;;;-5.18;76.65
67517;BME280;54359;59.124;37.910;2023-02-16T00:30:49;101035.09;;;-5.10;77.28
67517;BME280;54359;59.124;37.910;2023-02-16T00:33:18;101038.78;;;-5.07;76.89
67517;BME280;54359;59.124;37.910;2023-02-16T00:35:44;101030.97;;;-5.10;76.90
67517;BME280;54359;59.124;37.910;2023-02-16T00:38:12;101032.38;;;-5.03;77.48
67517;BME280;54359;59.124;37.910;2023-02-16T00:40:39;101026.97;;;-5.08;77.17
67517;BME280;54359;59.124;37.910;2023-02-16T00:43:05;101033.06;;;-4.95;76.91
67517;BME280;54359;59.124;37.910;2023-02-16T00:45:36;101032.59;;;-4.91;76.96
67517;BME280;54359;59.124;37.910;2023-02-16T00:48:02;101046.56;;;-4.85;76.83
67517;BME280;54359;59.124;37.910;2023-02-16T00:50:30;101024.91;;;-4.84;76.55
67517;BME280;54359;59.124;37.910;2023-02-16T00:52:56;101030.56;;;-4.76;77.03
67517;BME280;54359;59.124;37.910;2023-02-16T00:55:33;101036.75;;;-4.73;77.35
67517;BME280;54359;59.124;37.910;2023-02-16T00:58:17;101037.91;;;-4.69;77.22
67517;BME280;54359;59.124;37.910;2023-02-16T01:01:19;101037.91;;;-4.69;77.10
67517;BME280;54359;59.124;37.910;2023-02-16T01:03:38;101041.41;;;-4.67;76.99
67517;BME280;54359;59.124;37.910;2023-02-16T01:06:05;101049.19;;;-4.64;76.87
67517;BME280;54359;59.124;37.910;2023-02-16T01:08:49;101046.22;;;-4.60;76.79
67517;BME280;54359;59.124;37.910;2023-02-16T01:11:34;101041.81;;;-4.62;77.03
67517;BME280;54359;59.124;37.910;2023-02-16T01:14:04;101032.66;;;-4.62;77.13
67517;BME280;54359;59.124;37.910;2023-02-16T01:16:37;101046.75;;;-4.54;77.03
67517;BME280;54359;59.124;37.910;2023-02-16T01:19:03;101052.53;;;-4.55;76.87
67517;BME280;54359;59.124;37.910;2023-02-16T01:21:29;101032.66;;;-4.62;76.89
67517;BME280;54359;59.124;37.910;2023-02-16T01:23:55;101031.16;;;-4.60;76.56
67517;BME280;54359;59.124;37.910;2023-02-16T01:26:21;101045.88;;;-4.54;76.88
67517;BME280;54359;59.124;37.910;2023-02-16T01:28:47;101043.84;;;-4.58;77.11
67517;BME280;54359;59.124;37.910;2023-02-16T01:31:15;101034.38;;;-4.71;76.75
67517;BME280;54359;59.124;37.910;2023-02-16T01:33:41;101032.97;;;-4.78;76.88
67517;BME280;54359;59.124;37.910;2023-02-16T01:36:23;101046.03;;;-4.72;77.13
67517;BME280;54359;59.124;37.910;2023-02-16T01:38:50;101046.91;;;-4.71;77.28
67517;BME280;54359;59.124;37.910;2023-02-16T01:44:32;101031.38;;;-4.67;77.06
67517;BME280;54359;59.124;37.910;2023-02-16T01:47:46;101037.66;;;-4.62;77.21
67517;BME280;54359;59.124;37.910;2023-02-16T01:49:46;101035.63;;;-4.66;77.17
67517;BME280;54359;59.124;37.910;2023-02-16T01:52:32;101042.97;;;-4.59;77.10
67517;BME280;54359;59.124;37.910;2023-02-16T01:55:28;101024.59;;;-4.68;76.61
67517;BME280;54359;59.124;37.910;2023-02-16T02:03:26;101032.06;;;-4.78;77.12
67517;BME280;54359;59.124;37.910;2023-02-16T02:06:14;101025.38;;;-4.88;76.61
67517;BME280;54359;59.124;37.910;2023-02-16T02:08:50;101032.47;;;-4.93;76.85
67517;BME280;54359;59.124;37.910;2023-02-16T02:11:24;101031.03;;;-4.99;77.26
67517;BME280;54359;59.124;37.910;2023-02-16T02:14:06;101027.97;;;-5.06;77.43
67517;BME280;54359;59.124;37.910;2023-02-16T02:16:34;101022.03;;;-5.16;77.24
67517;BME280;54359;59.124;37.910;2023-02-16T02:19:00;101017.63;;;-5.19;77.59
67517;BME280;54359;59.124;37.910;2023-02-16T02:32:52;101033.06;;;-4.95;76.82
67517;BME280;54359;59.124;37.910;2023-02-16T02:38:10;101033.69;;;-4.98;76.73
67517;BME280;54359;59.124;37.910;2023-02-16T02:43:29;101036.06;;;-4.99;77.24
67517;BME280;54359;59.124;37.910;2023-02-16T02:46:04;101040.44;;;-4.97;77.49
67517;BME280;54359;59.124;37.910;2023-02-16T02:48:32;101026.31;;;-4.96;77.29
67517;BME280;54359;59.124;37.910;2023-02-16T02:51:11;101033.63;;;-4.89;77.04
67517;BME280;54359;59.124;37.910;2023-02-16T02:56:57;101032.53;;;-4.82;76.85
67517;BME280;54359;59.124;37.910;2023-02-16T02:59:50;101027.59;;;-4.91;77.75
67517;BME280;54359;59.124;37.910;2023-02-16T03:02:37;101031.72;;;-4.92;77.08
67517;BME280;54359;59.124;37.910;2023-02-16T03:05:07;101030.56;;;-4.95;76.71
67517;BME280;54359;59.124;37.910;2023-02-16T03:07:36;101024.59;;;-5.06;76.77
67517;BME280;54359;59.124;37.910;2023-02-16T03:10:17;101026.81;;;-5.09;77.35
67517;BME280;54359;59.124;37.910;2023-02-16T03:13:05;101022.25;;;-5.04;77.40
67517;BME280;54359;59.124;37.910;2023-02-16T03:15:33;101020.78;;;-5.11;77.21
67517;BME280;54359;59.124;37.910;2023-02-16T03:18:02;101019.50;;;-5.16;77.22
67517;BME280;54359;59.124;37.910;2023-02-16T03:20:48;101031.09;;;-5.08;76.95
67517;BME280;54359;59.124;37.910;2023-02-16T03:23:33;101025.81;;;-5.11;77.26
67517;BME280;54359;59.124;37.910;2023-02-16T03:26:18;101034.22;;;-5.11;76.66
67517;BME280;54359;59.124;37.910;2023-02-16T03:29:05;101035.72;;;-5.13;77.56
67517;BME280;54359;59.124;37.910;2023-02-16T03:31:50;101027.44;;;-5.12;76.89
67517;BME280;54359;59.124;37.910;2023-02-16T03:34:18;101021.56;;;-5.12;77.38
67517;BME280;54359;59.124;37.910;2023-02-16T03:36:48;101016.06;;;-5.08;77.37
67517;BME280;54359;59.124;37.910;2023-02-16T03:39:15;101032.81;;;-4.98;76.60
67517;BME280;54359;59.124;37.910;2023-02-16T03:41:45;101029.06;;;-4.93;76.70
67517;BME280;54359;59.124;37.910;2023-02-16T03:44:12;101024.69;;;-4.96;77.01
67517;BME280;54359;59.124;37.910;2023-02-16T03:46:38;101014.78;;;-4.94;76.51
67517;BME280;54359;59.124;37.910;2023-02-16T03:49:03;101020.13;;;-5.00;76.75
67517;BME280;54359;59.124;37.910;2023-02-16T03:51:29;101023.53;;;-4.99;76.54
67517;BME280;54359;59.124;37.910;2023-02-16T03:53:56;101021.78;;;-5.00;77.19
67517;BME280;54359;59.124;37.910;2023-02-16T03:56:22;101021.31;;;-4.96;77.21
67517;BME280;54359;59.124;37.910;2023-02-16T03:58:50;101012.31;;;-5.03;77.35
67517;BME280;54359;59.124;37.910;2023-02-16T04:01:16;101019.81;;;-4.94;77.40
67517;BME280;54359;59.124;37.910;2023-02-16T04:03:42;101032.06;;;-4.97;76.81
67517;BME280;54359;59.124;37.910;2023-02-16T04:06:08;101022.91;;;-4.97;77.06
67517;BME280;54359;59.124;37.910;2023-02-16T04:08:34;101026.16;;;-4.98;76.92
67517;BME280;54359;59.124;37.910;2023-02-16T04:11:00;101022.34;;;-5.03;77.00
67517;BME280;54359;59.124;37.910;2023-02-16T04:13:45;101024.06;;;-4.93;77.04
67517;BME280;54359;59.124;37.910;2023-02-16T04:16:11;101009.78;;;-4.94;77.56
67517;BME280;54359;59.124;37.910;2023-02-16T04:18:37;101014.31;;;-4.90;77.06
67517;BME280;54359;59.124;37.910;2023-02-16T04:21:03;100996.69;;;-5.00;77.19
67517;BME280;54359;59.124;37.910;2023-02-16T04:23:30;101022.97;;;-4.87;77.54
67517;BME280;54359;59.124;37.910;2023-02-16T04:25:55;101012.53;;;-4.91;77.33
67517;BME280;54359;59.124;37.910;2023-02-16T04:28:22;101017.22;;;-4.86;77.31
67517;BME280;54359;59.124;37.910;2023-02-16T04:30:48;101039.72;;;-4.77;77.17
67517;BME280;54359;59.124;37.910;2023-02-16T04:33:14;101033.50;;;-4.72;77.31
67517;BME280;54359;59.124;37.910;2023-02-16T04:35:40;101029.50;;;-4.70;77.19
67517;BME280;54359;59.124;37.910;2023-02-16T04:38:10;101037.41;;;-4.65;77.17
67517;BME280;54359;59.124;37.910;2023-02-16T04:40:36;101034.56;;;-4.59;76.89
67517;BME280;54359;59.124;37.910;2023-02-16T04:43:02;101027.16;;;-4.58;76.75
67517;BME280;54359;59.124;37.910;2023-02-16T04:45:31;101020.00;;;-4.63;76.96
67517;BME280;54359;59.124;37.910;2023-02-16T04:47:57;101019.25;;;-4.62;77.16
67517;BME280;54359;59.124;37.910;2023-02-16T04:50:23;101040.00;;;-4.55;77.01
67517;BME280;54359;59.124;37.910;2023-02-16T04:52:49;101037.72;;;-4.52;77.01
67517;BME280;54359;59.124;37.910;2023-02-16T04:55:15;101034.00;;;-4.47;77.30
67517;BME280;54359;59.124;37.910;2023-02-16T04:57:42;101035.03;;;-4.45;77.29
67517;BME280;54359;59.124;37.910;2023-02-16T05:00:09;101032.91;;;-4.40;77.27
67517;BME280;54359;59.124;37.910;2023-02-16T05:02:39;101031.41;;;-4.38;77.29
67517;BME280;54359;59.124;37.910;2023-02-16T05:05:09;101040.81;;;-4.35;77.22
67517;BME280;54359;59.124;37.910;2023-02-16T05:07:38;101018.19;;;-4.46;76.54
67517;BME280;54359;59.124;37.910;2023-02-16T05:10:05;101031.41;;;-4.38;77.12
67517;BME280;54359;59.124;37.910;2023-02-16T05:12:31;101034.22;;;-4.35;77.20
67517;BME280;54359;59.124;37.910;2023-02-16T05:15:16;101013.72;;;-4.39;77.17
67517;BME280;54359;59.124;37.910;2023-02-16T05:17:42;101028.28;;;-4.35;77.74
67517;BME280;54359;59.124;37.910;2023-02-16T05:20:09;101015.88;;;-4.34;77.07
67517;BME280;54359;59.124;37.910;2023-02-16T05:22:35;101024.94;;;-4.26;77.46
67517;BME280;54359;59.124;37.910;2023-02-16T05:25:07;101030.25;;;-4.22;76.93
67517;BME280;54359;59.124;37.910;2023-02-16T05:27:33;101018.44;;;-4.23;76.97
67517;BME280;54359;59.124;37.910;2023-02-16T05:29:59;101022.81;;;-4.21;77.10
67517;BME280;54359;59.124;37.910;2023-02-16T05:32:27;101003.38;;;-4.23;76.80
67517;BME280;54359;59.124;37.910;2023-02-16T05:34:53;101011.56;;;-4.16;76.78
67517;BME280;54359;59.124;37.910;2023-02-16T05:37:19;101030.19;;;-4.03;77.15
67517;BME280;54359;59.124;37.910;2023-02-16T05:39:45;101014.97;;;-4.05;77.28
67517;BME280;54359;59.124;37.910;2023-02-16T05:42:12;101023.31;;;-3.96;77.06
67517;BME280;54359;59.124;37.910;2023-02-16T05:44:38;101022.53;;;-3.95;77.33
67517;BME280;54359;59.124;37.910;2023-02-16T05:47:04;101016.03;;;-3.93;76.57
67517;BME280;54359;59.124;37.910;2023-02-16T05:49:29;101021.56;;;-3.87;76.77
67517;BME280;54359;59.124;37.910;2023-02-16T05:51:57;101028.13;;;-3.78;76.62
67517;BME280;54359;59.124;37.910;2023-02-16T05:54:23;101011.38;;;-3.88;76.82
67517;BME280;54359;59.124;37.910;2023-02-16T05:56:50;101027.25;;;-3.79;76.83
67517;BME280;54359;59.124;37.910;2023-02-16T05:59:16;101020.56;;;-3.78;76.74
67517;BME280;54359;59.124;37.910;2023-02-16T06:01:43;101027.38;;;-3.77;77.06
67517;BME280;54359;59.124;37.910;2023-02-16T06:04:11;101027.47;;;-3.76;77.17
67517;BME280;54359;59.124;37.910;2023-02-16T06:06:39;101022.47;;;-3.76;76.99
67517;BME280;54359;59.124;37.910;2023-02-16T06:09:10;101026.25;;;-3.71;76.55
67517;BME280;54359;59.124;37.910;2023-02-16T06:11:39;101038.53;;;-3.74;76.40
67517;BME280;54359;59.124;37.910;2023-02-16T06:14:16;101016.41;;;-3.88;76.22
67517;BME280;54359;59.124;37.910;2023-02-16T06:16:46;101019.81;;;-3.88;76.42
67517;BME280;54359;59.124;37.910;2023-02-16T06:19:16;101023.06;;;-3.89;76.05
67517;BME280;54359;59.124;37.910;2023-02-16T06:21:43;101035.66;;;-3.78;76.55
67517;BME280;54359;59.124;37.910;2023-02-16T06:24:12;101030.75;;;-3.77;76.71
67517;BME280;54359;59.124;37.910;2023-02-16T06:26:41;101044.72;;;-3.60;76.80
67517;BME280;54359;59.124;37.910;2023-02-16T06:29:09;101016.22;;;-3.60;76.70
67517;BME280;54359;59.124;37.910;2023-02-16T06:31:34;101042.25;;;-3.39;76.85
67517;BME280;54359;59.124;37.910;2023-02-16T06:34:04;101035.09;;;-3.35;77.53
67517;BME280;54359;59.124;37.910;2023-02-16T06:36:32;101029.56;;;-3.31;76.18
67517;BME280;54359;59.124;37.910;2023-02-16T06:38:59;101038.50;;;-3.14;76.80
67517;BME280;54359;59.124;37.910;2023-02-16T06:41:24;101030.84;;;-3.05;77.12
67517;BME280;54359;59.124;37.910;2023-02-16T06:44:00;101031.56;;;-2.96;76.26
67517;BME280;54359;59.124;37.910;2023-02-16T06:46:27;101018.13;;;-2.96;76.53
67517;BME280;54359;59.124;37.910;2023-02-16T06:48:57;101022.28;;;-2.97;76.23
67517;BME280;54359;59.124;37.910;2023-02-16T06:51:25;101028.56;;;-3.02;75.78
67517;BME280;54359;59.124;37.910;2023-02-16T06:54:01;101018.91;;;-3.18;76.07
67517;BME280;54359;59.124;37.910;2023-02-16T06:56:27;101021.41;;;-3.28;76.21
67517;BME280;54359;59.124;37.910;2023-02-16T06:58:52;101035.00;;;-3.26;75.97
67517;BME280;54359;59.124;37.910;2023-02-16T07:01:19;101014.59;;;-3.39;75.69
67517;BME280;54359;59.124;37.910;2023-02-16T07:03:49;101026.94;;;-3.32;76.73
67517;BME280;54359;59.124;37.910;2023-02-16T07:06:15;101031.84;;;-3.34;76.81
67517;BME280;54359;59.124;37.910;2023-02-16T07:08:41;101019.50;;;-3.41;76.07
67517;BME280;54359;59.124;37.910;2023-02-16T07:11:07;101021.28;;;-3.40;75.84
67517;BME280;54359;59.124;37.910;2023-02-16T07:13:35;101027.03;;;-3.41;75.78
67517;BME280;54359;59.124;37.910;2023-02-16T07:16:04;101007.81;;;-3.51;76.27
67517;BME280;54359;59.124;37.910;2023-02-16T07:18:34;101032.97;;;-3.40;75.80
67517;BME280;54359;59.124;37.910;2023-02-16T07:21:00;101029.81;;;-3.38;75.60
67517;BME280;54359;59.124;37.910;2023-02-16T07:23:26;101005.31;;;-3.51;76.23
67517;BME280;54359;59.124;37.910;2023-02-16T07:25:54;101017.13;;;-3.39;75.25
67517;BME280;54359;59.124;37.910;2023-02-16T07:28:20;101020.50;;;-3.39;75.83
67517;BME280;54359;59.124;37.910;2023-02-16T07:30:47;101028.69;;;-3.31;76.18
67517;BME280;54359;59.124;37.910;2023-02-16T07:33:14;101023.41;;;-3.34;76.26
67517;BME280;54359;59.124;37.910;2023-02-16T07:35:40;101025.53;;;-3.29;76.22
67517;BME280;54359;59.124;37.910;2023-02-16T07:38:05;101008.84;;;-3.38;75.62
67517;BME280;54359;59.124;37.910;2023-02-16T07:40:35;101027.44;;;-3.26;75.97
67517;BME280;54359;59.124;37.910;2023-02-16T07:43:04;101029.31;;;-3.24;75.71
67517;BME280;54359;59.124;37.910;2023-02-16T07:45:38;101022.28;;;-3.28;75.92
67517;BME280;54359;59.124;37.910;2023-02-16T07:48:07;101016.25;;;-3.30;76.12
67517;BME280;54359;59.124;37.910;2023-02-16T07:50:39;101032.97;;;-3.20;75.23
67517;BME280;54359;59.124;37.910;2023-02-16T07:53:17;101018.63;;;-3.21;75.63
67517;BME280;54359;59.124;37.910;2023-02-16T07:55:45;101023.16;;;-3.17;75.56
67517;BME280;54359;59.124;37.910;2023-02-16T07:58:12;101027.94;;;-3.10;76.22
67517;BME280;54359;59.124;37.910;2023-02-16T08:01:05;101025.53;;;-3.08;75.40
67517;BME280;54359;59.124;37.910;2023-02-16T08:03:33;101022.91;;;-3.10;75.67
67517;BME280;54359;59.124;37.910;2023-02-16T08:06:02;101010.44;;;-3.08;75.68
67517;BME280;54359;59.124;37.910;2023-02-16T08:08:29;101019.41;;;-3.01;76.20
67517;BME280;54359;59.124;37.910;2023-02-16T08:10:55;101015.38;;;-2.99;75.81
67517;BME280;54359;59.124;37.910;2023-02-16T08:13:23;101015.88;;;-2.93;75.22
67517;BME280;54359;59.124;37.910;2023-02-16T08:15:49;100999.28;;;-3.01;75.31
67517;BME280;54359;59.124;37.910;2023-02-16T08:18:15;101012.06;;;-2.88;75.24
67517;BME280;54359;59.124;37.910;2023-02-16T08:20:40;100999.13;;;-2.93;74.97
67517;BME280;54359;59.124;37.910;2023-02-16T08:23:06;101016.72;;;-2.83;75.66
67517;BME280;54359;59.124;37.910;2023-02-16T08:25:35;101020.38;;;-2.79;75.52
67517;BME280;54359;59.124;37.910;2023-02-16T08:28:01;101012.19;;;-2.76;75.92
67517;BME280;54359;59.124;37.910;2023-02-16T08:30:27;101018.56;;;-2.70;75.49
67517;BME280;54359;59.124;37.910;2023-02-16T08:32:53;101019.06;;;-2.64;76.14
67517;BME280;54359;59.124;37.910;2023-02-16T08:35:22;101002.31;;;-2.63;75.83
67517;BME280;54359;59.124;37.910;2023-02-16T08:37:48;101007.75;;;-2.58;75.21
67517;BME280;54359;59.124;37.910;2023-02-16T08:40:19;101007.09;;;-2.56;75.63
67517;BME280;54359;59.124;37.910;2023-02-16T08:42:50;101015.91;;;-2.61;75.13
67517;BME280;54359;59.124;37.910;2023-02-16T08:45:17;101004.13;;;-2.72;75.63
67517;BME280;54359;59.124;37.910;2023-02-16T08:47:43;101010.91;;;-2.71;75.89
67517;BME280;54359;59.124;37.910;2023-02-16T08:50:10;101007.28;;;-2.75;75.30
67517;BME280;54359;59.124;37.910;2023-02-16T08:52:36;101002.25;;;-2.75;75.74
67517;BME280;54359;59.124;37.910;2023-02-16T08:55:03;101003.34;;;-2.71;75.87
67517;BME280;54359;59.124;37.910;2023-02-16T08:57:33;101005.34;;;-2.67;76.52
67517;BME280;54359;59.124;37.910;2023-02-16T08:59:59;101002.81;;;-2.57;75.87
67517;BME280;54359;59.124;37.910;2023-02-16T09:02:43;101002.69;;;-2.48;76.08
67517;BME280;54359;59.124;37.910;2023-02-16T09:05:09;101001.50;;;-2.41;75.79
67517;BME280;54359;59.124;37.910;2023-02-16T09:07:34;100993.19;;;-2.40;75.51
67517;BME280;54359;59.124;37.910;2023-02-16T09:10:01;100982.72;;;-2.35;75.77
67517;BME280;54359;59.124;37.910;2023-02-16T09:12:29;100996.63;;;-2.18;76.24
67517;BME280;54359;59.124;37.910;2023-02-16T09:14:55;100994.94;;;-2.07;76.13
67517;BME280;54359;59.124;37.910;2023-02-16T09:17:22;100991.47;;;-1.97;75.81
67517;BME280;54359;59.124;37.910;2023-02-16T09:19:53;100985.56;;;-1.98;75.76
67517;BME280;54359;59.124;37.910;2023-02-16T09:22:19;100988.56;;;-1.92;75.96
67517;BME280;54359;59.124;37.910;2023-02-16T09:24:45;100989.28;;;-1.83;75.80
67517;BME280;54359;59.124;37.910;2023-02-16T09:27:11;100976.34;;;-1.75;76.24
67517;BME280;54359;59.124;37.910;2023-02-16T09:29:37;100968.19;;;-1.61;76.18
67517;BME280;54359;59.124;37.910;2023-02-16T09:32:04;100982.97;;;-1.32;75.56
67517;BME280;54359;59.124;37.910;2023-02-16T09:34:31;100981.78;;;-1.13;75.86
67517;BME280;54359;59.124;37.910;2023-02-16T09:36:56;100952.19;;;-1.16;75.59
67517;BME280;54359;59.124;37.910;2023-02-16T09:39:22;100962.19;;;-0.94;75.83
67517;BME280;54359;59.124;37.910;2023-02-16T09:47:31;100963.94;;;-0.81;75.43
67517;BME280;54359;59.124;37.910;2023-02-16T09:49:59;100962.97;;;-0.83;75.64
67517;BME280;54359;59.124;37.910;2023-02-16T09:52:37;100965.91;;;-0.89;75.46
67517;BME280;54359;59.124;37.910;2023-02-16T09:55:05;100962.41;;;-0.91;75.48
67517;BME280;54359;59.124;37.910;2023-02-16T10:08:54;100934.66;;;-1.14;74.85
67517;BME280;54359;59.124;37.910;2023-02-16T10:14:27;100954.16;;;-1.12;74.99
67517;BME280;54359;59.124;37.910;2023-02-16T10:17:15;100948.38;;;-1.11;75.10
67517;BME280;54359;59.124;37.910;2023-02-16T10:20:17;100952.88;;;-1.07;75.00
67517;BME280;54359;59.124;37.910;2023-02-16T10:22:47;100950.66;;;-1.02;75.18
67517;BME280;54359;59.124;37.910;2023-02-16T10:28:21;100935.44;;;-0.92;74.95
67517;BME280;54359;59.124;37.910;2023-02-16T10:31:02;100942.56;;;-0.86;75.07
67517;BME280;54359;59.124;37.910;2023-02-16T10:33:48;100947.81;;;-0.83;74.92
67517;BME280;54359;59.124;37.910;2023-02-16T10:39:47;100935.94;;;-0.72;75.06
67517;BME280;54359;59.124;37.910;2023-02-16T10:45:18;100928.28;;;-0.74;74.95
67517;BME280;54359;59.124;37.910;2023-02-16T10:47:47;100930.59;;;-0.77;75.08
67517;BME280;54359;59.124;37.910;2023-02-16T10:50:24;100932.25;;;-0.77;75.06
67517;BME280;54359;59.124;37.910;2023-02-16T10:52:59;100925.88;;;-0.84;75.07
67517;BME280;54359;59.124;37.910;2023-02-16T10:55:27;100922.69;;;-0.93;74.64
67517;BME280;54359;59.124;37.910;2023-02-16T10:58:00;100928.41;;;-0.96;74.88
67517;BME280;54359;59.124;37.910;2023-02-16T11:01:12;100934.75;;;-1.01;74.92
67517;BME280;54359;59.124;37.910;2023-02-16T11:03:50;100927.09;;;-1.03;75.26
67517;BME280;54359;59.124;37.910;2023-02-16T11:06:22;100930.06;;;-0.96;75.34
67517;BME280;54359;59.124;37.910;2023-02-16T11:09:00;100904.38;;;-1.03;75.57
67517;BME280;54359;59.124;37.910;2023-02-16T11:11:33;100927.84;;;-0.80;75.11
67517;BME280;54359;59.124;37.910;2023-02-16T11:14:21;100929.03;;;-0.75;74.89
67517;BME280;54359;59.124;37.910;2023-02-16T11:19:33;100921.16;;;-0.68;75.04
67517;BME280;54359;59.124;37.910;2023-02-16T11:22:00;100923.88;;;-0.65;74.68
67517;BME280;54359;59.124;37.910;2023-02-16T11:24:29;100929.03;;;-0.63;74.98
67517;BME280;54359;59.124;37.910;2023-02-16T11:27:10;100916.84;;;-0.57;74.49
67517;BME280;54359;59.124;37.910;2023-02-16T11:29:40;100914.88;;;-0.12;75.94
67517;BME280;54359;59.124;37.910;2023-02-16T11:32:08;100910.06;;;0.81;76.05
67517;BME280;54359;59.124;37.910;2023-02-16T11:34:47;100910.38;;;1.80;75.35
67517;BME280;54359;59.124;37.910;2023-02-16T11:38:58;100910.31;;;2.52;74.33
67517;BME280;54359;59.124;37.910;2023-02-16T11:41:32;100905.78;;;2.61;73.25
67517;BME280;54359;59.124;37.910;2023-02-16T11:44:00;100890.13;;;2.53;74.22
67517;BME280;54359;59.124;37.910;2023-02-16T11:46:38;100905.44;;;2.99;74.53
67517;BME280;54359;59.124;37.910;2023-02-16T11:52:28;100896.16;;;2.26;74.00
67517;BME280;54359;59.124;37.910;2023-02-16T11:55:44;100876.97;;;1.59;74.40
67517;BME280;54359;59.124;37.910;2023-02-16T11:58:22;100907.91;;;1.54;74.87
67517;BME280;54359;59.124;37.910;2023-02-16T12:01:26;100904.72;;;1.85;75.69
67517;BME280;54359;59.124;37.910;2023-02-16T12:08:32;100908.34;;;1.61;74.45
67517;BME280;54359;59.124;37.910;2023-02-16T12:14:26;100904.16;;;1.07;74.55
67517;BME280;54359;59.124;37.910;2023-02-16T12:23:38;100904.88;;;0.14;74.28
67517;BME280;54359;59.124;37.910;2023-02-16T12:46:45;100854.81;;;-1.95;74.64
67517;BME280;54359;59.124;37.910;2023-02-16T12:49:22;100890.56;;;-1.77;74.50
67517;BME280;54359;59.124;37.910;2023-02-16T12:51:55;100860.47;;;-2.09;74.56
67517;BME280;54359;59.124;37.910;2023-02-16T12:54:27;100909.69;;;-1.91;75.19
67517;BME280;54359;59.124;37.910;2023-02-16T12:57:22;100910.66;;;-2.00;74.67
67517;BME280;54359;59.124;37.910;2023-02-16T12:59:56;100915.75;;;-2.11;74.94
67517;BME280;54359;59.124;37.910;2023-02-16T13:02:53;100906.38;;;-2.24;74.10
67517;BME280;54359;59.124;37.910;2023-02-16T13:05:30;100912.00;;;-2.38;74.37
67517;BME280;54359;59.124;37.910;2023-02-16T13:08:21;100884.81;;;-2.64;74.82
67517;BME280;54359;59.124;37.910;2023-02-16T13:11:03;100898.63;;;-2.59;74.55
67517;BME280;54359;59.124;37.910;2023-02-16T13:13:36;100905.66;;;-2.55;74.67
67517;BME280;54359;59.124;37.910;2023-02-16T13:16:41;100890.88;;;-2.72;74.69
67517;BME280;54359;59.124;37.910;2023-02-16T13:19:40;100845.59;;;-3.05;74.50
67517;BME280;54359;59.124;37.910;2023-02-16T13:34:53;100905.31;;;-3.02;73.91
67517;BME280;54359;59.124;37.910;2023-02-16T13:37:51;100901.44;;;-3.09;74.21
67517;BME280;54359;59.124;37.910;2023-02-16T13:43:40;100896.56;;;-3.17;75.04
67517;BME280;54359;59.124;37.910;2023-02-16T13:46:35;100869.69;;;-3.39;73.81
67517;BME280;54359;59.124;37.910;2023-02-16T13:49:03;100871.97;;;-3.42;73.64
67517;BME280;54359;59.124;37.910;2023-02-16T13:51:40;100887.28;;;-3.39;74.17
67517;BME280;54359;59.124;37.910;2023-02-16T13:54:31;100871.63;;;-3.47;74.23
67517;BME280;54359;59.124;37.910;2023-02-16T13:57:00;100874.38;;;-3.54;74.34
67517;BME280;54359;59.124;37.910;2023-02-16T14:01:56;100869.13;;;-3.67;73.83
67517;BME280;54359;59.124;37.910;2023-02-16T14:09:35;100891.97;;;-3.85;73.62
67517;BME280;54359;59.124;37.910;2023-02-16T14:14:44;100883.78;;;-3.92;73.97
67517;BME280;54359;59.124;37.910;2023-02-16T14:22:46;100886.81;;;-3.96;73.78
67517;BME280;54359;59.124;37.910;2023-02-16T14:33:15;100883.38;;;-4.28;74.34
67517;BME280;54359;59.124;37.910;2023-02-16T14:38:43;100874.69;;;-4.31;74.34
67517;BME280;54359;59.124;37.910;2023-02-16T14:43:50;100873.19;;;-4.39;74.42
67517;BME280;54359;59.124;37.910;2023-02-16T14:46:41;100882.47;;;-4.38;74.46
67517;BME280;54359;59.124;37.910;2023-02-16T14:55:10;100895.22;;;-4.56;74.30
67517;BME280;54359;59.124;37.910;2023-02-16T14:58:38;100869.19;;;-4.77;74.36
67517;BME280;54359;59.124;37.910;2023-02-16T15:00:45;100896.06;;;-4.66;74.34
67517;BME280;54359;59.124;37.910;2023-02-16T15:03:21;100888.03;;;-4.72;74.14
67517;BME280;54359;59.124;37.910;2023-02-16T15:06:02;100878.94;;;-4.90;73.66
67517;BME280;54359;59.124;37.910;2023-02-16T15:08:33;100871.75;;;-4.96;74.58
67517;BME280;54359;59.124;37.910;2023-02-16T15:11:12;100831.84;;;-5.32;74.70
67517;BME280;54359;59.124;37.910;2023-02-16T15:13:39;100896.97;;;-4.94;74.07
67517;BME280;54359;59.124;37.910;2023-02-16T15:16:09;100899.81;;;-5.00;74.23
67517;BME280;54359;59.124;37.910;2023-02-16T15:18:43;100900.44;;;-5.02;74.89
67517;BME280;54359;59.124;37.910;2023-02-16T15:21:22;100904.53;;;-5.03;74.55
67517;BME280;54359;59.124;37.910;2023-02-16T15:23:51;100899.00;;;-5.09;74.04
67517;BME280;54359;59.124;37.910;2023-02-16T15:26:23;100905.50;;;-5.11;74.47
67517;BME280;54359;59.124;37.910;2023-02-16T15:28:59;100899.06;;;-5.18;74.03
67517;BME280;54359;59.124;37.910;2023-02-16T15:31:35;100860.69;;;-5.46;74.25
67517;BME280;54359;59.124;37.910;2023-02-16T15:34:04;100890.06;;;-5.35;74.01
67517;BME280;54359;59.124;37.910;2023-02-16T15:36:35;100893.31;;;-5.36;74.35
67517;BME280;54359;59.124;37.910;2023-02-16T15:39:08;100903.22;;;-5.37;74.79